www.cux-wetter.de
Wetterdaten: Montag, 23.12.2013
Datum Zeit Temp. A. Feuchte A. Luftdruck Regen Wind Richtung Richtung Sonnenschein Solar Taupunkt Windchill Windben
23.12.2013 00:00 7,0 C 82 % 1006,5 hPa 0,0 l/m 34,3 km/h (5 Bft) W 280 0 min 0 W/m 4,1 C -4,5 C 34,3 km/h (5 Bft)
23.12.2013 00:15 7,2 C 81 % 1006,5 hPa 0,0 l/m 36,8 km/h (5 Bft) W-NW 290 0 min 0 W/m 4,2 C -4,7 C 36,8 km/h (5 Bft)
23.12.2013 00:30 7,1 C 82 % 1006,5 hPa 0,0 l/m 33,2 km/h (5 Bft) W 275 0 min 0 W/m 4,2 C -4,1 C 33,2 km/h (5 Bft)
23.12.2013 00:45 7,0 C 82 % 1006,5 hPa 0,0 l/m 34,7 km/h (5 Bft) W 280 0 min 0 W/m 4,1 C -4,6 C 34,7 km/h (5 Bft)
23.12.2013 01:00 6,9 C 83 % 1007,5 hPa 0,0 l/m 30,3 km/h (5 Bft) W 270 0 min 0 W/m 4,2 C -3,8 C 30,3 km/h (5 Bft)
23.12.2013 01:15 7,1 C 83 % 1007,5 hPa 0,0 l/m 35,8 km/h (5 Bft) W 275 0 min 0 W/m 4,4 C -4,7 C 35,8 km/h (5 Bft)
23.12.2013 01:30 7,0 C 82 % 1007,5 hPa 0,0 l/m 36,5 km/h (5 Bft) W 275 0 min 0 W/m 4,1 C -4,9 C 36,5 km/h (5 Bft)
23.12.2013 01:45 6,9 C 82 % 1007,5 hPa 0,0 l/m 39,2 km/h (6 Bft) W 275 0 min 0 W/m 4,0 C -5,6 C 39,2 km/h (6 Bft)
23.12.2013 02:00 6,8 C 81 % 1007,5 hPa 0,0 l/m 35,4 km/h (5 Bft) W 275 0 min 0 W/m 3,8 C -5,0 C 35,4 km/h (5 Bft)
23.12.2013 02:15 6,6 C 82 % 1007,5 hPa 0,0 l/m 39,6 km/h (6 Bft) W-NW 285 0 min 0 W/m 3,8 C -6,1 C 39,6 km/h (6 Bft)
23.12.2013 02:30 6,5 C 82 % 1007,5 hPa 0,0 l/m 38,5 km/h (6 Bft) W 270 0 min 0 W/m 3,7 C -6,0 C 38,5 km/h (6 Bft)
23.12.2013 02:45 6,5 C 83 % 1007,5 hPa 0,0 l/m 31,9 km/h (5 Bft) W 275 0 min 0 W/m 3,8 C -4,7 C 31,9 km/h (5 Bft)
23.12.2013 03:00 6,4 C 83 % 1008,5 hPa 0,0 l/m 40,0 km/h (6 Bft) W-NW 285 0 min 0 W/m 3,7 C -6,4 C 40,0 km/h (6 Bft)
23.12.2013 03:15 6,4 C 83 % 1008,5 hPa 0,0 l/m 36,9 km/h (5 Bft) W 280 0 min 0 W/m 3,7 C -5,9 C 36,9 km/h (5 Bft)
23.12.2013 03:30 6,4 C 83 % 1008,5 hPa 0,0 l/m 34,9 km/h (5 Bft) W 275 0 min 0 W/m 3,7 C -5,5 C 34,9 km/h (5 Bft)
23.12.2013 03:45 6,3 C 83 % 1008,5 hPa 0,0 l/m 40,5 km/h (6 Bft) W 280 0 min 0 W/m 3,6 C -6,7 C 40,5 km/h (6 Bft)
23.12.2013 04:00 6,3 C 83 % 1008,5 hPa 0,0 l/m 37,3 km/h (5 Bft) W-NW 285 0 min 0 W/m 3,6 C -6,1 C 37,3 km/h (5 Bft)
23.12.2013 04:15 6,2 C 83 % 1008,5 hPa 0,0 l/m 36,0 km/h (5 Bft) W 280 0 min 0 W/m 3,5 C -6,0 C 36,0 km/h (5 Bft)
23.12.2013 04:30 6,2 C 83 % 1008,5 hPa 0,0 l/m 36,3 km/h (5 Bft) W-NW 285 0 min 0 W/m 3,5 C -6,1 C 36,3 km/h (5 Bft)
23.12.2013 04:45 6,1 C 82 % 1008,5 hPa 0,0 l/m 35,1 km/h (5 Bft) W-NW 285 0 min 0 W/m 3,3 C -6,0 C 35,1 km/h (5 Bft)
23.12.2013 05:00 6,0 C 83 % 1009,5 hPa 0,0 l/m 33,9 km/h (5 Bft) W 275 0 min 0 W/m 3,3 C -5,9 C 33,9 km/h (5 Bft)
23.12.2013 05:15 6,0 C 83 % 1009,5 hPa 0,0 l/m 27,6 km/h (5 Bft) W-NW 285 0 min 0 W/m 3,3 C -4,3 C 27,6 km/h (5 Bft)
23.12.2013 05:30 6,0 C 82 % 1009,5 hPa 0,0 l/m 40,0 km/h (6 Bft) W-NW 285 0 min 0 W/m 3,2 C -7,0 C 40,0 km/h (6 Bft)
23.12.2013 05:45 6,0 C 82 % 1009,5 hPa 0,0 l/m 36,0 km/h (5 Bft) W-NW 285 0 min 0 W/m 3,2 C -6,3 C 36,0 km/h (5 Bft)
23.12.2013 06:00 6,0 C 82 % 1009,5 hPa 0,0 l/m 33,9 km/h (5 Bft) W 275 0 min 0 W/m 3,2 C -5,9 C 33,9 km/h (5 Bft)
23.12.2013 06:15 5,9 C 82 % 1009,5 hPa 0,0 l/m 38,6 km/h (6 Bft) W 280 0 min 0 W/m 3,1 C -6,9 C 38,6 km/h (6 Bft)
23.12.2013 06:30 5,8 C 81 % 1009,5 hPa 0,0 l/m 32,6 km/h (5 Bft) W-NW 285 0 min 0 W/m 2,8 C -5,9 C 32,6 km/h (5 Bft)
23.12.2013 06:45 5,9 C 82 % 1009,5 hPa 0,0 l/m 35,2 km/h (5 Bft) W-NW 290 0 min 0 W/m 3,1 C -6,3 C 35,2 km/h (5 Bft)
23.12.2013 07:00 5,8 C 81 % 1009,5 hPa 0,0 l/m 34,4 km/h (5 Bft) W-NW 285 0 min 0 W/m 2,8 C -6,3 C 34,4 km/h (5 Bft)
23.12.2013 07:15 5,6 C 82 % 1010,5 hPa 0,0 l/m 33,7 km/h (5 Bft) W-NW 285 0 min 0 W/m 2,8 C -6,4 C 33,7 km/h (5 Bft)
23.12.2013 07:30 5,6 C 82 % 1010,5 hPa 0,0 l/m 36,4 km/h (5 Bft) W 275 0 min 0 W/m 2,8 C -7,0 C 36,4 km/h (5 Bft)
23.12.2013 07:45 5,5 C 83 % 1010,5 hPa 0,0 l/m 36,1 km/h (5 Bft) W 275 0 min 0 W/m 2,8 C -7,1 C 36,1 km/h (5 Bft)
23.12.2013 08:00 5,5 C 83 % 1010,5 hPa 0,0 l/m 33,0 km/h (5 Bft) W 275 0 min 0 W/m 2,8 C -6,4 C 33,0 km/h (5 Bft)
23.12.2013 08:15 5,4 C 83 % 1010,5 hPa 0,0 l/m 36,4 km/h (5 Bft) W 280 0 min 0 W/m 2,7 C -7,3 C 36,4 km/h (5 Bft)
23.12.2013 08:30 5,5 C 83 % 1010,5 hPa 0,0 l/m 37,4 km/h (5 Bft) W 280 0 min 0 W/m 2,8 C -7,3 C 37,4 km/h (5 Bft)
23.12.2013 08:45 5,4 C 83 % 1010,5 hPa 0,0 l/m 30,7 km/h (5 Bft) W 275 0 min 0 W/m 2,7 C -6,0 C 30,7 km/h (5 Bft)
23.12.2013 09:00 5,4 C 83 % 1010,5 hPa 0,0 l/m 24,8 km/h (4 Bft) W 280 0 min 0 W/m 2,7 C -4,3 C 24,8 km/h (4 Bft)
23.12.2013 09:15 5,1 C 84 % 1010,5 hPa 0,0 l/m 23,0 km/h (4 Bft) W 275 0 min 0 W/m 2,6 C -4,1 C 23,0 km/h (4 Bft)
23.12.2013 09:30 4,9 C 84 % 1010,5 hPa 0,0 l/m 26,1 km/h (4 Bft) W 270 0 min 0 W/m 2,4 C -5,4 C 26,1 km/h (4 Bft)
23.12.2013 09:45 5,2 C 85 % 1011,5 hPa 0,0 l/m 26,0 km/h (4 Bft) W 270 0 min 0 W/m 2,9 C -5,0 C 26,0 km/h (4 Bft)
23.12.2013 10:00 5,2 C 85 % 1011,5 hPa 0,0 l/m 27,0 km/h (5 Bft) W 275 0 min 0 W/m 2,9 C -5,3 C 27,0 km/h (5 Bft)
23.12.2013 10:15 5,2 C 85 % 1011,5 hPa 0,0 l/m 31,7 km/h (5 Bft) W-NW 285 0 min 0 W/m 2,9 C -6,5 C 31,7 km/h (5 Bft)
23.12.2013 10:30 5,4 C 85 % 1011,5 hPa 0,0 l/m 35,0 km/h (5 Bft) W-NW 285 0 min 0 W/m 3,1 C -7,0 C 35,0 km/h (5 Bft)
23.12.2013 10:45 5,4 C 85 % 1011,5 hPa 0,0 l/m 29,3 km/h (5 Bft) W 275 0 min 0 W/m 3,1 C -5,6 C 29,3 km/h (5 Bft)
23.12.2013 11:00 5,7 C 85 % 1011,5 hPa 0,0 l/m 29,6 km/h (5 Bft) W 270 0 min 0 W/m 3,4 C -5,3 C 29,6 km/h (5 Bft)
23.12.2013 11:15 5,9 C 85 % 1011,5 hPa 0,0 l/m 30,3 km/h (5 Bft) W 280 0 min 0 W/m 3,6 C -5,2 C 30,3 km/h (5 Bft)
23.12.2013 11:30 6,0 C 85 % 1010,5 hPa 0,0 l/m 35,8 km/h (5 Bft) W 275 0 min 0 W/m 3,7 C -6,3 C 35,8 km/h (5 Bft)
23.12.2013 11:45 6,1 C 84 % 1010,5 hPa 0,0 l/m 29,9 km/h (5 Bft) W 270 0 min 0 W/m 3,6 C -4,8 C 29,9 km/h (5 Bft)
23.12.2013 12:00 6,4 C 84 % 1010,5 hPa 0,0 l/m 27,3 km/h (5 Bft) W 270 0 min 0 W/m 3,9 C -3,7 C 27,3 km/h (5 Bft)
23.12.2013 12:15 6,8 C 83 % 1010,5 hPa 0,0 l/m 28,3 km/h (5 Bft) W 265 0 min 0 W/m 4,1 C -3,4 C 28,3 km/h (5 Bft)
23.12.2013 12:30 6,8 C 83 % 1009,5 hPa 0,0 l/m 25,7 km/h (4 Bft) W-SW 240 0 min 0 W/m 4,1 C -2,7 C 25,7 km/h (4 Bft)
23.12.2013 12:45 6,9 C 82 % 1009,5 hPa 0,0 l/m 24,6 km/h (4 Bft) W 265 0 min 0 W/m 4,0 C -2,2 C 24,6 km/h (4 Bft)
23.12.2013 13:00 7,0 C 82 % 1009,5 hPa 0,0 l/m 28,8 km/h (5 Bft) W 270 0 min 0 W/m 4,1 C -3,3 C 28,8 km/h (5 Bft)
23.12.2013 13:15 7,2 C 83 % 1009,5 hPa 0,0 l/m 30,0 km/h (5 Bft) W 270 0 min 0 W/m 4,5 C -3,3 C 30,0 km/h (5 Bft)
23.12.2013 13:30 7,3 C 82 % 1008,5 hPa 0,0 l/m 25,1 km/h (4 Bft) SW 235 0 min 0 W/m 4,4 C -1,9 C 25,1 km/h (4 Bft)
23.12.2013 13:45 7,3 C 82 % 1008,5 hPa 0,0 l/m 28,5 km/h (5 Bft) SW 235 0 min 0 W/m 4,4 C -2,8 C 28,5 km/h (5 Bft)
23.12.2013 14:00 7,2 C 83 % 1008,5 hPa 0,0 l/m 26,5 km/h (4 Bft) W-SW 245 0 min 0 W/m 4,5 C -2,4 C 26,5 km/h (4 Bft)
23.12.2013 14:15 7,3 C 83 % 1007,5 hPa 0,0 l/m 30,5 km/h (5 Bft) SW 235 0 min 0 W/m 4,6 C -3,3 C 30,5 km/h (5 Bft)
23.12.2013 14:30 7,3 C 83 % 1007,5 hPa 0,0 l/m 24,8 km/h (4 Bft) W-SW 240 0 min 0 W/m 4,6 C -1,8 C 24,8 km/h (4 Bft)
23.12.2013 14:45 7,3 C 83 % 1007,5 hPa 0,0 l/m 24,4 km/h (4 Bft) SW 230 0 min 0 W/m 4,6 C -1,6 C 24,4 km/h (4 Bft)
23.12.2013 15:00 7,2 C 83 % 1006,5 hPa 0,0 l/m 30,2 km/h (5 Bft) SW 235 0 min 0 W/m 4,5 C -3,3 C 30,2 km/h (5 Bft)
23.12.2013 15:15 7,2 C 83 % 1006,5 hPa 0,0 l/m 24,3 km/h (4 Bft) SW 225 0 min 0 W/m 4,5 C -1,8 C 24,3 km/h (4 Bft)
23.12.2013 15:30 7,2 C 83 % 1006,5 hPa 0,0 l/m 25,8 km/h (4 Bft) SW 230 0 min 0 W/m 4,5 C -2,2 C 25,8 km/h (4 Bft)
23.12.2013 15:45 7,3 C 82 % 1005,5 hPa 0,0 l/m 24,7 km/h (4 Bft) SW 225 0 min 0 W/m 4,4 C -1,7 C 24,7 km/h (4 Bft)
23.12.2013 16:00 7,3 C 82 % 1005,5 hPa 0,0 l/m 20,5 km/h (4 Bft) S-SW 210 0 min 0 W/m 4,4 C -0,4 C 20,5 km/h (4 Bft)
23.12.2013 16:15 7,3 C 82 % 1005,5 hPa 0,0 l/m 19,6 km/h (3 Bft) SW 225 0 min 0 W/m 4,4 C -0,1 C 19,6 km/h (3 Bft)
23.12.2013 16:30 7,4 C 82 % 1005,5 hPa 0,0 l/m 26,6 km/h (4 Bft) S-SW 210 0 min 0 W/m 4,5 C -2,1 C 26,6 km/h (4 Bft)
23.12.2013 16:45 7,4 C 82 % 1004,5 hPa 0,0 l/m 20,5 km/h (4 Bft) SW 220 0 min 0 W/m 4,5 C -0,3 C 20,5 km/h (4 Bft)
23.12.2013 17:00 7,5 C 82 % 1004,5 hPa 0,0 l/m 29,6 km/h (5 Bft) S-SW 210 0 min 0 W/m 4,6 C -2,8 C 29,6 km/h (5 Bft)
23.12.2013 17:15 7,6 C 81 % 1004,5 hPa 0,0 l/m 27,4 km/h (5 Bft) S-SW 210 0 min 0 W/m 4,6 C -2,1 C 27,4 km/h (5 Bft)
23.12.2013 17:30 7,8 C 80 % 1003,5 hPa 0,0 l/m 29,5 km/h (5 Bft) SW 220 0 min 0 W/m 4,6 C -2,3 C 29,5 km/h (5 Bft)
23.12.2013 17:45 8,0 C 79 % 1003,5 hPa 0,0 l/m 28,0 km/h (5 Bft) S-SW 210 0 min 0 W/m 4,6 C -1,7 C 28,0 km/h (5 Bft)
23.12.2013 18:00 8,0 C 79 % 1002,5 hPa 0,0 l/m 31,9 km/h (5 Bft) SW 225 0 min 0 W/m 4,6 C -2,6 C 31,9 km/h (5 Bft)
23.12.2013 18:15 8,2 C 78 % 1002,5 hPa 0,0 l/m 35,5 km/h (5 Bft) SW 215 0 min 0 W/m 4,6 C -3,0 C 35,5 km/h (5 Bft)
23.12.2013 18:30 8,3 C 78 % 1001,5 hPa 0,0 l/m 31,6 km/h (5 Bft) SW 215 0 min 0 W/m 4,7 C -2,1 C 31,6 km/h (5 Bft)
23.12.2013 18:45 8,4 C 78 % 1001,5 hPa 0,0 l/m 36,6 km/h (5 Bft) SW 220 0 min 0 W/m 4,8 C -2,9 C 36,6 km/h (5 Bft)
23.12.2013 19:00 8,4 C 77 % 1000,5 hPa 0,0 l/m 36,5 km/h (5 Bft) SW 225 0 min 0 W/m 4,6 C -2,9 C 36,5 km/h (5 Bft)
23.12.2013 19:15 8,6 C 77 % 1000,5 hPa 0,0 l/m 38,9 km/h (6 Bft) W-SW 240 0 min 0 W/m 4,8 C -3,0 C 38,9 km/h (6 Bft)
23.12.2013 19:30 8,8 C 77 % 999,5 hPa 0,0 l/m 36,0 km/h (5 Bft) W-SW 240 0 min 0 W/m 5,0 C -2,2 C 36,0 km/h (5 Bft)
23.12.2013 19:45 9,0 C 77 % 999,5 hPa 0,0 l/m 38,6 km/h (6 Bft) W-SW 250 0 min 0 W/m 5,2 C -2,4 C 38,6 km/h (6 Bft)
23.12.2013 20:00 9,2 C 76 % 998,5 hPa 0,0 l/m 42,5 km/h (6 Bft) SW 230 0 min 0 W/m 5,2 C -2,7 C 42,5 km/h (6 Bft)
23.12.2013 20:15 9,2 C 76 % 998,5 hPa 0,0 l/m 42,4 km/h (6 Bft) SW 220 0 min 0 W/m 5,2 C -2,6 C 42,4 km/h (6 Bft)
23.12.2013 20:30 9,4 C 76 % 998,5 hPa 0,0 l/m 37,3 km/h (5 Bft) W-SW 240 0 min 0 W/m 5,4 C -1,6 C 37,3 km/h (5 Bft)
23.12.2013 20:45 9,6 C 77 % 997,5 hPa 0,0 l/m 41,9 km/h (6 Bft) SW 235 0 min 0 W/m 5,8 C -2,0 C 41,9 km/h (6 Bft)
23.12.2013 21:00 9,7 C 77 % 997,5 hPa 0,0 l/m 37,2 km/h (5 Bft) W-SW 245 0 min 0 W/m 5,9 C -1,1 C 37,2 km/h (5 Bft)
23.12.2013 21:15 9,8 C 77 % 997,5 hPa 0,0 l/m 53,0 km/h (7 Bft) W-SW 250 0 min 0 W/m 6,0 C -2,9 C 53,0 km/h (7 Bft)
23.12.2013 21:30 9,9 C 78 % 996,5 hPa 0,0 l/m 47,0 km/h (6 Bft) W-SW 250 0 min 0 W/m 6,2 C -2,2 C 47,0 km/h (6 Bft)
23.12.2013 21:45 9,9 C 79 % 996,5 hPa 0,0 l/m 38,9 km/h (6 Bft) W-SW 255 0 min 0 W/m 6,4 C -1,1 C 38,9 km/h (6 Bft)
23.12.2013 22:00 10,0 C 79 % 996,5 hPa 0,0 l/m 49,0 km/h (7 Bft) SW 235 0 min 0 W/m 6,5 C -2,2 C 49,0 km/h (7 Bft)
23.12.2013 22:15 9,9 C 80 % 995,5 hPa 0,0 l/m 42,4 km/h (6 Bft) W-SW 245 0 min 0 W/m 6,6 C -1,6 C 42,4 km/h (6 Bft)
23.12.2013 22:30 9,8 C 81 % 995,5 hPa 0,0 l/m 38,5 km/h (6 Bft) W-SW 240 0 min 0 W/m 6,7 C -1,2 C 38,5 km/h (6 Bft)
23.12.2013 22:45 9,8 C 81 % 994,5 hPa 0,3 l/m 48,1 km/h (6 Bft) W-SW 240 0 min 0 W/m 6,7 C -2,4 C 48,1 km/h (6 Bft)
23.12.2013 23:00 9,9 C 81 % 994,5 hPa 0,0 l/m 40,5 km/h (6 Bft) W-SW 250 0 min 0 W/m 6,8 C -1,3 C 40,5 km/h (6 Bft)
23.12.2013 23:15 10,0 C 81 % 994,5 hPa 0,0 l/m 37,0 km/h (5 Bft) SW 235 0 min 0 W/m 6,9 C -0,6 C 37,0 km/h (5 Bft)
23.12.2013 23:30 10,1 C 81 % 994,5 hPa 0,0 l/m 42,2 km/h (6 Bft) W-SW 245 0 min 0 W/m 7,0 C -1,3 C 42,2 km/h (6 Bft)
23.12.2013 23:45 10,0 C 82 % 993,5 hPa 0,0 l/m 40,0 km/h (6 Bft) W 260 0 min 0 W/m 7,1 C -1,1 C 40,0 km/h (6 Bft)
_ Min-Zeit 09:30 20:00 23:45 - 16:15 - - - - 09:30 08:30 16:15
Minimum _ 4,9 C 76 % 993,5 hPa - 19,6 km/h (3 Bft) - - - - 2,4 C -7,3 C 19,6 km/h (3 Bft)
_ Max-Zeit 23:30 09:45 09:45 22:45 21:15 - - 00:00 00:00 23:45 16:15 21:15
Maximum _ 10,1 C 85 % 1011,5 hPa 0,3 l/m 53,0 km/h
W-SW (7 Bft)
- - 0 min 0 W/m 7,1 C -0,1 C 53,0 km/h
W-SW (7 Bft)
Durchschnitt _ 7,2 C 82 % 1005,9 hPa #0,3 l/m 33,6 km/h (5 Bft) W - #0 min. 0 W/m 4,2 C -3,9 C 33,6 km/h (5 Bft)
copyright by Holger Just